sensor_id;sensor_type;location;lat;lon;timestamp;P1;durP1;ratioP1;P2;durP2;ratioP2
35223;SDS011;21367;51.930;8.112;2023-03-14T00:04:22;8.32;;;1.55;;
35223;SDS011;21367;51.930;8.112;2023-03-14T00:09:28;8.50;;;1.30;;
35223;SDS011;21367;51.930;8.112;2023-03-14T00:14:32;8.93;;;1.40;;
35223;SDS011;21367;51.930;8.112;2023-03-14T00:19:37;15.05;;;2.10;;
35223;SDS011;21367;51.930;8.112;2023-03-14T00:24:43;9.05;;;2.00;;
35223;SDS011;21367;51.930;8.112;2023-03-14T00:29:47;7.63;;;1.58;;
35223;SDS011;21367;51.930;8.112;2023-03-14T00:34:51;9.52;;;1.95;;
35223;SDS011;21367;51.930;8.112;2023-03-14T00:39:58;9.95;;;1.80;;
35223;SDS011;21367;51.930;8.112;2023-03-14T00:45:02;12.68;;;1.60;;
35223;SDS011;21367;51.930;8.112;2023-03-14T00:50:08;17.25;;;1.73;;
35223;SDS011;21367;51.930;8.112;2023-03-14T00:55:16;12.73;;;2.08;;
35223;SDS011;21367;51.930;8.112;2023-03-14T01:00:19;8.77;;;1.63;;
35223;SDS011;21367;51.930;8.112;2023-03-14T01:05:24;10.07;;;1.55;;
35223;SDS011;21367;51.930;8.112;2023-03-14T01:10:30;6.60;;;1.23;;
35223;SDS011;21367;51.930;8.112;2023-03-14T01:20:38;12.68;;;1.45;;
35223;SDS011;21367;51.930;8.112;2023-03-14T01:25:44;12.13;;;1.60;;
35223;SDS011;21367;51.930;8.112;2023-03-14T01:30:48;11.27;;;1.50;;
35223;SDS011;21367;51.930;8.112;2023-03-14T01:35:52;16.02;;;2.55;;
35223;SDS011;21367;51.930;8.112;2023-03-14T01:40:58;14.75;;;1.70;;
35223;SDS011;21367;51.930;8.112;2023-03-14T01:51:38;10.57;;;2.03;;
35223;SDS011;21367;51.930;8.112;2023-03-14T01:56:51;11.23;;;1.30;;
35223;SDS011;21367;51.930;8.112;2023-03-14T02:01:59;9.88;;;1.42;;
35223;SDS011;21367;51.930;8.112;2023-03-14T02:07:07;7.18;;;1.17;;
35223;SDS011;21367;51.930;8.112;2023-03-14T02:12:23;7.07;;;0.98;;
35223;SDS011;21367;51.930;8.112;2023-03-14T02:17:47;4.10;;;0.43;;
35223;SDS011;21367;51.930;8.112;2023-03-14T02:22:59;2.38;;;0.50;;
35223;SDS011;21367;51.930;8.112;2023-03-14T02:28:07;4.70;;;0.47;;
35223;SDS011;21367;51.930;8.112;2023-03-14T02:39:19;5.22;;;0.70;;
35223;SDS011;21367;51.930;8.112;2023-03-14T02:44:31;12.05;;;1.00;;
35223;SDS011;21367;51.930;8.112;2023-03-14T02:49:36;5.78;;;0.77;;
35223;SDS011;21367;51.930;8.112;2023-03-14T02:54:40;8.15;;;0.90;;
35223;SDS011;21367;51.930;8.112;2023-03-14T02:59:46;9.35;;;0.85;;
35223;SDS011;21367;51.930;8.112;2023-03-14T03:04:53;8.00;;;1.17;;
35223;SDS011;21367;51.930;8.112;2023-03-14T03:09:57;7.15;;;1.02;;
35223;SDS011;21367;51.930;8.112;2023-03-14T03:15:04;7.50;;;1.08;;
35223;SDS011;21367;51.930;8.112;2023-03-14T03:20:10;10.57;;;1.35;;
35223;SDS011;21367;51.930;8.112;2023-03-14T03:25:14;12.30;;;1.15;;
35223;SDS011;21367;51.930;8.112;2023-03-14T03:30:22;7.00;;;1.50;;
35223;SDS011;21367;51.930;8.112;2023-03-14T03:35:26;8.77;;;1.27;;
35223;SDS011;21367;51.930;8.112;2023-03-14T03:40:31;12.50;;;1.33;;
35223;SDS011;21367;51.930;8.112;2023-03-14T03:45:37;9.35;;;1.33;;
35223;SDS011;21367;51.930;8.112;2023-03-14T03:50:43;13.88;;;1.42;;
35223;SDS011;21367;51.930;8.112;2023-03-14T03:55:53;8.95;;;1.52;;
35223;SDS011;21367;51.930;8.112;2023-03-14T04:00:59;12.13;;;1.42;;
35223;SDS011;21367;51.930;8.112;2023-03-14T04:06:04;15.75;;;1.90;;
35223;SDS011;21367;51.930;8.112;2023-03-14T04:11:11;7.65;;;0.90;;
35223;SDS011;21367;51.930;8.112;2023-03-14T04:16:44;9.95;;;1.60;;
35223;SDS011;21367;51.930;8.112;2023-03-14T04:21:51;8.55;;;1.35;;
35223;SDS011;21367;51.930;8.112;2023-03-14T04:26:57;12.48;;;1.80;;
35223;SDS011;21367;51.930;8.112;2023-03-14T04:32:04;17.52;;;1.50;;
35223;SDS011;21367;51.930;8.112;2023-03-14T04:37:09;15.88;;;1.73;;
35223;SDS011;21367;51.930;8.112;2023-03-14T04:42:17;16.83;;;1.92;;
35223;SDS011;21367;51.930;8.112;2023-03-14T04:47:24;12.77;;;1.50;;
35223;SDS011;21367;51.930;8.112;2023-03-14T04:52:28;20.27;;;2.40;;
35223;SDS011;21367;51.930;8.112;2023-03-14T04:57:34;14.73;;;2.20;;
35223;SDS011;21367;51.930;8.112;2023-03-14T05:02:44;16.13;;;1.60;;
35223;SDS011;21367;51.930;8.112;2023-03-14T05:08:20;12.40;;;2.17;;
35223;SDS011;21367;51.930;8.112;2023-03-14T05:13:43;15.65;;;1.52;;
35223;SDS011;21367;51.930;8.112;2023-03-14T05:19:02;7.33;;;1.30;;
35223;SDS011;21367;51.930;8.112;2023-03-14T05:24:24;14.75;;;1.65;;
35223;SDS011;21367;51.930;8.112;2023-03-14T05:29:48;10.88;;;1.50;;
35223;SDS011;21367;51.930;8.112;2023-03-14T05:34:54;8.93;;;1.52;;
35223;SDS011;21367;51.930;8.112;2023-03-14T05:40:11;9.23;;;1.42;;
35223;SDS011;21367;51.930;8.112;2023-03-14T05:45:25;10.15;;;1.38;;
35223;SDS011;21367;51.930;8.112;2023-03-14T05:50:43;6.68;;;1.00;;
35223;SDS011;21367;51.930;8.112;2023-03-14T05:56:06;9.55;;;0.85;;
35223;SDS011;21367;51.930;8.112;2023-03-14T06:01:31;6.97;;;0.90;;
35223;SDS011;21367;51.930;8.112;2023-03-14T06:06:46;4.72;;;0.57;;
35223;SDS011;21367;51.930;8.112;2023-03-14T06:11:50;4.60;;;0.43;;
35223;SDS011;21367;51.930;8.112;2023-03-14T06:16:55;5.25;;;0.60;;
35223;SDS011;21367;51.930;8.112;2023-03-14T06:22:04;6.93;;;0.80;;
35223;SDS011;21367;51.930;8.112;2023-03-14T06:27:10;3.35;;;0.50;;
35223;SDS011;21367;51.930;8.112;2023-03-14T06:32:15;3.35;;;0.70;;
35223;SDS011;21367;51.930;8.112;2023-03-14T06:37:22;8.63;;;0.60;;
35223;SDS011;21367;51.930;8.112;2023-03-14T06:42:27;3.05;;;0.45;;
35223;SDS011;21367;51.930;8.112;2023-03-14T06:47:31;10.38;;;0.70;;
35223;SDS011;21367;51.930;8.112;2023-03-14T06:52:38;6.07;;;0.73;;
35223;SDS011;21367;51.930;8.112;2023-03-14T06:57:51;4.43;;;0.88;;
35223;SDS011;21367;51.930;8.112;2023-03-14T07:02:55;3.30;;;0.60;;
35223;SDS011;21367;51.930;8.112;2023-03-14T07:08:06;6.10;;;0.70;;
35223;SDS011;21367;51.930;8.112;2023-03-14T07:13:10;30.63;;;10.95;;
35223;SDS011;21367;51.930;8.112;2023-03-14T07:18:29;10.85;;;3.90;;
35223;SDS011;21367;51.930;8.112;2023-03-14T07:23:36;8.63;;;3.45;;
35223;SDS011;21367;51.930;8.112;2023-03-14T07:28:41;9.18;;;2.30;;
35223;SDS011;21367;51.930;8.112;2023-03-14T07:33:50;6.10;;;1.80;;
35223;SDS011;21367;51.930;8.112;2023-03-14T07:38:58;19.53;;;3.47;;
35223;SDS011;21367;51.930;8.112;2023-03-14T07:44:08;8.63;;;2.28;;
35223;SDS011;21367;51.930;8.112;2023-03-14T07:49:12;13.80;;;2.80;;
35223;SDS011;21367;51.930;8.112;2023-03-14T07:54:18;10.02;;;3.63;;
35223;SDS011;21367;51.930;8.112;2023-03-14T08:04:25;9.77;;;2.00;;
35223;SDS011;21367;51.930;8.112;2023-03-14T08:09:32;8.80;;;2.38;;
35223;SDS011;21367;51.930;8.112;2023-03-14T08:14:35;7.18;;;2.55;;
35223;SDS011;21367;51.930;8.112;2023-03-14T08:19:40;3.90;;;1.80;;
35223;SDS011;21367;51.930;8.112;2023-03-14T08:24:47;4.93;;;2.40;;
35223;SDS011;21367;51.930;8.112;2023-03-14T08:29:50;4.68;;;2.30;;
35223;SDS011;21367;51.930;8.112;2023-03-14T08:34:54;5.20;;;2.20;;
35223;SDS011;21367;51.930;8.112;2023-03-14T08:40:01;5.32;;;2.33;;
35223;SDS011;21367;51.930;8.112;2023-03-14T08:45:07;7.43;;;3.58;;
35223;SDS011;21367;51.930;8.112;2023-03-14T08:50:13;2.45;;;1.63;;
35223;SDS011;21367;51.930;8.112;2023-03-14T08:55:20;7.88;;;2.40;;
35223;SDS011;21367;51.930;8.112;2023-03-14T09:05:28;8.52;;;3.15;;
35223;SDS011;21367;51.930;8.112;2023-03-14T09:10:34;4.63;;;3.00;;
35223;SDS011;21367;51.930;8.112;2023-03-14T09:15:38;6.13;;;3.25;;
35223;SDS011;21367;51.930;8.112;2023-03-14T09:20:42;4.45;;;2.88;;
35223;SDS011;21367;51.930;8.112;2023-03-14T09:25:48;5.03;;;2.90;;
35223;SDS011;21367;51.930;8.112;2023-03-14T09:35:57;3.75;;;2.70;;
35223;SDS011;21367;51.930;8.112;2023-03-14T09:41:09;3.72;;;2.75;;
35223;SDS011;21367;51.930;8.112;2023-03-14T09:46:17;6.68;;;3.75;;
35223;SDS011;21367;51.930;8.112;2023-03-14T09:51:21;6.22;;;3.58;;
35223;SDS011;21367;51.930;8.112;2023-03-14T09:56:29;4.35;;;3.40;;
35223;SDS011;21367;51.930;8.112;2023-03-14T10:01:35;5.72;;;3.97;;
35223;SDS011;21367;51.930;8.112;2023-03-14T10:06:39;6.97;;;4.30;;
35223;SDS011;21367;51.930;8.112;2023-03-14T10:11:45;7.90;;;4.50;;
35223;SDS011;21367;51.930;8.112;2023-03-14T10:16:49;3.85;;;2.33;;
35223;SDS011;21367;51.930;8.112;2023-03-14T10:21:53;1.17;;;0.65;;
35223;SDS011;21367;51.930;8.112;2023-03-14T10:27:01;1.23;;;0.40;;
35223;SDS011;21367;51.930;8.112;2023-03-14T10:32:10;2.67;;;0.40;;
35223;SDS011;21367;51.930;8.112;2023-03-14T10:37:23;2.75;;;0.70;;
35223;SDS011;21367;51.930;8.112;2023-03-14T10:42:32;8.98;;;0.68;;
35223;SDS011;21367;51.930;8.112;2023-03-14T10:47:38;7.70;;;0.65;;
35223;SDS011;21367;51.930;8.112;2023-03-14T10:52:52;2.22;;;0.55;;
35223;SDS011;21367;51.930;8.112;2023-03-14T10:58:00;1.20;;;0.60;;
35223;SDS011;21367;51.930;8.112;2023-03-14T11:03:06;4.18;;;1.00;;
35223;SDS011;21367;51.930;8.112;2023-03-14T11:08:15;2.83;;;0.65;;
35223;SDS011;21367;51.930;8.112;2023-03-14T11:13:29;4.30;;;0.60;;
35223;SDS011;21367;51.930;8.112;2023-03-14T11:29:35;0.30;;;0.20;;
35223;SDS011;21367;51.930;8.112;2023-03-14T11:34:44;0.30;;;0.15;;
35223;SDS011;21367;51.930;8.112;2023-03-14T11:39:56;2.08;;;0.40;;
35223;SDS011;21367;51.930;8.112;2023-03-14T11:45:12;3.00;;;0.70;;
35223;SDS011;21367;51.930;8.112;2023-03-14T11:50:21;6.13;;;0.50;;
35223;SDS011;21367;51.930;8.112;2023-03-14T11:55:30;4.07;;;0.75;;
35223;SDS011;21367;51.930;8.112;2023-03-14T12:00:39;5.80;;;0.98;;
35223;SDS011;21367;51.930;8.112;2023-03-14T12:05:48;11.18;;;1.10;;
35223;SDS011;21367;51.930;8.112;2023-03-14T12:10:59;8.40;;;0.90;;
35223;SDS011;21367;51.930;8.112;2023-03-14T12:16:18;7.88;;;1.08;;
35223;SDS011;21367;51.930;8.112;2023-03-14T12:21:42;9.13;;;1.50;;
35223;SDS011;21367;51.930;8.112;2023-03-14T12:26:52;11.15;;;1.20;;
35223;SDS011;21367;51.930;8.112;2023-03-14T12:32:09;13.45;;;2.08;;
35223;SDS011;21367;51.930;8.112;2023-03-14T12:37:26;17.15;;;1.90;;
35223;SDS011;21367;51.930;8.112;2023-03-14T12:42:38;12.73;;;1.58;;
35223;SDS011;21367;51.930;8.112;2023-03-14T12:48:00;12.30;;;1.85;;
35223;SDS011;21367;51.930;8.112;2023-03-14T12:59:05;7.53;;;1.80;;
35223;SDS011;21367;51.930;8.112;2023-03-14T13:04:22;14.98;;;2.15;;
35223;SDS011;21367;51.930;8.112;2023-03-14T13:15:20;14.80;;;2.22;;
35223;SDS011;21367;51.930;8.112;2023-03-14T13:20:31;22.60;;;2.30;;
35223;SDS011;21367;51.930;8.112;2023-03-14T13:25:37;19.15;;;2.17;;
35223;SDS011;21367;51.930;8.112;2023-03-14T13:30:41;30.13;;;3.88;;
35223;SDS011;21367;51.930;8.112;2023-03-14T13:35:53;21.03;;;2.03;;
35223;SDS011;21367;51.930;8.112;2023-03-14T13:40:59;31.77;;;3.00;;
35223;SDS011;21367;51.930;8.112;2023-03-14T13:46:10;26.13;;;3.75;;
35223;SDS011;21367;51.930;8.112;2023-03-14T13:51:19;24.65;;;2.65;;
35223;SDS011;21367;51.930;8.112;2023-03-14T13:56:30;36.58;;;4.00;;
35223;SDS011;21367;51.930;8.112;2023-03-14T14:01:36;25.65;;;2.90;;
35223;SDS011;21367;51.930;8.112;2023-03-14T14:06:46;16.42;;;2.25;;
35223;SDS011;21367;51.930;8.112;2023-03-14T14:11:53;20.65;;;2.85;;
35223;SDS011;21367;51.930;8.112;2023-03-14T14:16:59;17.33;;;2.67;;
35223;SDS011;21367;51.930;8.112;2023-03-14T14:22:07;23.88;;;2.20;;
35223;SDS011;21367;51.930;8.112;2023-03-14T14:27:13;21.67;;;2.42;;
35223;SDS011;21367;51.930;8.112;2023-03-14T14:32:18;25.88;;;2.17;;
35223;SDS011;21367;51.930;8.112;2023-03-14T14:37:26;21.23;;;2.30;;
35223;SDS011;21367;51.930;8.112;2023-03-14T14:42:31;17.20;;;2.35;;
35223;SDS011;21367;51.930;8.112;2023-03-14T14:47:35;27.50;;;2.15;;
35223;SDS011;21367;51.930;8.112;2023-03-14T14:52:55;12.45;;;1.77;;
35223;SDS011;21367;51.930;8.112;2023-03-14T14:58:11;13.82;;;2.42;;
35223;SDS011;21367;51.930;8.112;2023-03-14T15:03:17;16.80;;;2.78;;
35223;SDS011;21367;51.930;8.112;2023-03-14T15:08:24;20.98;;;2.20;;
35223;SDS011;21367;51.930;8.112;2023-03-14T15:13:29;17.88;;;2.70;;
35223;SDS011;21367;51.930;8.112;2023-03-14T15:18:34;14.50;;;2.00;;
35223;SDS011;21367;51.930;8.112;2023-03-14T15:23:40;10.07;;;1.42;;
35223;SDS011;21367;51.930;8.112;2023-03-14T15:33:48;10.90;;;1.40;;
35223;SDS011;21367;51.930;8.112;2023-03-14T15:38:55;22.42;;;1.60;;
35223;SDS011;21367;51.930;8.112;2023-03-14T15:43:59;10.52;;;1.33;;
35223;SDS011;21367;51.930;8.112;2023-03-14T15:49:03;9.18;;;1.02;;
35223;SDS011;21367;51.930;8.112;2023-03-14T15:54:09;12.68;;;1.80;;
35223;SDS011;21367;51.930;8.112;2023-03-14T15:59:13;6.93;;;1.65;;
35223;SDS011;21367;51.930;8.112;2023-03-14T16:04:18;10.63;;;1.85;;
35223;SDS011;21367;51.930;8.112;2023-03-14T16:09:24;10.65;;;1.25;;
35223;SDS011;21367;51.930;8.112;2023-03-14T16:19:31;13.18;;;1.50;;
35223;SDS011;21367;51.930;8.112;2023-03-14T16:24:37;11.00;;;1.33;;
35223;SDS011;21367;51.930;8.112;2023-03-14T16:29:41;9.75;;;1.73;;
35223;SDS011;21367;51.930;8.112;2023-03-14T16:34:47;13.00;;;1.83;;
35223;SDS011;21367;51.930;8.112;2023-03-14T16:39:54;7.22;;;1.70;;
35223;SDS011;21367;51.930;8.112;2023-03-14T16:44:57;16.08;;;1.50;;
35223;SDS011;21367;51.930;8.112;2023-03-14T16:50:01;17.58;;;1.65;;
35223;SDS011;21367;51.930;8.112;2023-03-14T16:55:08;15.23;;;1.48;;
35223;SDS011;21367;51.930;8.112;2023-03-14T17:00:13;13.95;;;1.52;;
35223;SDS011;21367;51.930;8.112;2023-03-14T17:05:17;11.50;;;1.40;;
35223;SDS011;21367;51.930;8.112;2023-03-14T17:10:23;18.60;;;2.10;;
35223;SDS011;21367;51.930;8.112;2023-03-14T17:15:27;12.52;;;1.48;;
35223;SDS011;21367;51.930;8.112;2023-03-14T17:20:31;7.63;;;1.45;;
35223;SDS011;21367;51.930;8.112;2023-03-14T17:25:38;12.20;;;1.58;;
35223;SDS011;21367;51.930;8.112;2023-03-14T17:35:45;11.43;;;1.60;;
35223;SDS011;21367;51.930;8.112;2023-03-14T17:40:51;9.63;;;1.65;;
35223;SDS011;21367;51.930;8.112;2023-03-14T17:45:56;19.52;;;2.33;;
35223;SDS011;21367;51.930;8.112;2023-03-14T17:51:00;15.88;;;1.42;;
35223;SDS011;21367;51.930;8.112;2023-03-14T17:56:07;12.23;;;1.80;;
35223;SDS011;21367;51.930;8.112;2023-03-14T18:01:13;17.95;;;1.90;;
35223;SDS011;21367;51.930;8.112;2023-03-14T18:11:24;11.98;;;2.33;;
35223;SDS011;21367;51.930;8.112;2023-03-14T18:16:28;14.27;;;1.70;;
35223;SDS011;21367;51.930;8.112;2023-03-14T18:21:32;15.43;;;1.63;;
35223;SDS011;21367;51.930;8.112;2023-03-14T18:26:38;14.52;;;1.75;;
35223;SDS011;21367;51.930;8.112;2023-03-14T18:36:46;12.30;;;1.50;;
35223;SDS011;21367;51.930;8.112;2023-03-14T18:41:52;10.93;;;2.03;;
35223;SDS011;21367;51.930;8.112;2023-03-14T18:46:56;13.63;;;2.10;;
35223;SDS011;21367;51.930;8.112;2023-03-14T18:52:00;12.43;;;1.98;;
35223;SDS011;21367;51.930;8.112;2023-03-14T18:57:06;18.67;;;1.65;;
35223;SDS011;21367;51.930;8.112;2023-03-14T19:07:13;14.60;;;2.00;;
35223;SDS011;21367;51.930;8.112;2023-03-14T19:12:19;25.50;;;2.97;;
35223;SDS011;21367;51.930;8.112;2023-03-14T19:17:22;13.93;;;2.00;;
35223;SDS011;21367;51.930;8.112;2023-03-14T19:22:26;18.05;;;2.70;;
35223;SDS011;21367;51.930;8.112;2023-03-14T19:27:34;16.45;;;1.70;;
35223;SDS011;21367;51.930;8.112;2023-03-14T19:32:39;13.60;;;1.98;;
35223;SDS011;21367;51.930;8.112;2023-03-14T19:37:44;25.10;;;2.30;;
35223;SDS011;21367;51.930;8.112;2023-03-14T19:42:50;14.73;;;1.95;;
35223;SDS011;21367;51.930;8.112;2023-03-14T19:47:54;17.60;;;2.28;;
35223;SDS011;21367;51.930;8.112;2023-03-14T19:52:58;28.85;;;2.88;;
35223;SDS011;21367;51.930;8.112;2023-03-14T19:58:04;20.17;;;2.08;;
35223;SDS011;21367;51.930;8.112;2023-03-14T20:03:08;17.27;;;1.90;;
35223;SDS011;21367;51.930;8.112;2023-03-14T20:08:12;29.83;;;2.63;;
35223;SDS011;21367;51.930;8.112;2023-03-14T20:13:19;17.98;;;2.30;;
35223;SDS011;21367;51.930;8.112;2023-03-14T20:18:22;22.45;;;2.45;;
35223;SDS011;21367;51.930;8.112;2023-03-14T20:23:26;28.30;;;2.83;;
35223;SDS011;21367;51.930;8.112;2023-03-14T20:28:32;14.65;;;1.80;;
35223;SDS011;21367;51.930;8.112;2023-03-14T20:38:44;14.95;;;1.83;;
35223;SDS011;21367;51.930;8.112;2023-03-14T20:43:51;33.72;;;2.22;;
35223;SDS011;21367;51.930;8.112;2023-03-14T20:48:55;19.17;;;2.35;;
35223;SDS011;21367;51.930;8.112;2023-03-14T20:54:00;17.85;;;1.90;;
35223;SDS011;21367;51.930;8.112;2023-03-14T20:59:06;23.92;;;2.00;;
35223;SDS011;21367;51.930;8.112;2023-03-14T21:09:14;21.33;;;2.83;;
35223;SDS011;21367;51.930;8.112;2023-03-14T21:14:20;9.73;;;1.90;;
35223;SDS011;21367;51.930;8.112;2023-03-14T21:19:24;15.63;;;2.20;;
35223;SDS011;21367;51.930;8.112;2023-03-14T21:24:32;17.95;;;2.40;;
35223;SDS011;21367;51.930;8.112;2023-03-14T21:29:39;13.90;;;2.00;;
35223;SDS011;21367;51.930;8.112;2023-03-14T21:34:43;20.90;;;2.22;;
35223;SDS011;21367;51.930;8.112;2023-03-14T21:39:48;22.00;;;2.72;;
35223;SDS011;21367;51.930;8.112;2023-03-14T21:44:54;15.57;;;1.73;;
35223;SDS011;21367;51.930;8.112;2023-03-14T21:55:01;11.75;;;1.92;;
35223;SDS011;21367;51.930;8.112;2023-03-14T22:00:09;18.00;;;2.50;;
35223;SDS011;21367;51.930;8.112;2023-03-14T22:05:16;32.63;;;4.20;;
35223;SDS011;21367;51.930;8.112;2023-03-14T22:10:21;30.55;;;4.35;;
35223;SDS011;21367;51.930;8.112;2023-03-14T22:15:28;29.40;;;5.10;;
35223;SDS011;21367;51.930;8.112;2023-03-14T22:20:31;26.98;;;3.55;;
35223;SDS011;21367;51.930;8.112;2023-03-14T22:25:37;16.50;;;2.30;;
35223;SDS011;21367;51.930;8.112;2023-03-14T22:30:47;13.52;;;2.22;;
35223;SDS011;21367;51.930;8.112;2023-03-14T22:35:52;20.00;;;2.05;;
35223;SDS011;21367;51.930;8.112;2023-03-14T22:40:58;21.23;;;2.42;;
35223;SDS011;21367;51.930;8.112;2023-03-14T22:46:05;17.00;;;2.15;;
35223;SDS011;21367;51.930;8.112;2023-03-14T22:51:10;14.85;;;3.25;;
35223;SDS011;21367;51.930;8.112;2023-03-14T22:56:15;21.75;;;4.72;;
35223;SDS011;21367;51.930;8.112;2023-03-14T23:01:22;16.85;;;2.47;;
35223;SDS011;21367;51.930;8.112;2023-03-14T23:06:25;22.23;;;2.80;;
35223;SDS011;21367;51.930;8.112;2023-03-14T23:11:29;22.48;;;2.83;;
35223;SDS011;21367;51.930;8.112;2023-03-14T23:16:37;20.45;;;2.53;;
35223;SDS011;21367;51.930;8.112;2023-03-14T23:21:41;27.77;;;4.28;;
35223;SDS011;21367;51.930;8.112;2023-03-14T23:26:45;34.05;;;5.13;;
35223;SDS011;21367;51.930;8.112;2023-03-14T23:31:51;20.45;;;4.05;;
35223;SDS011;21367;51.930;8.112;2023-03-14T23:36:55;17.73;;;3.10;;
35223;SDS011;21367;51.930;8.112;2023-03-14T23:41:58;24.42;;;2.90;;
35223;SDS011;21367;51.930;8.112;2023-03-14T23:47:05;14.48;;;2.75;;
35223;SDS011;21367;51.930;8.112;2023-03-14T23:52:11;14.75;;;2.03;;
35223;SDS011;21367;51.930;8.112;2023-03-14T23:57:15;13.70;;;2.33;;
